Time;durP1;ratioP1;P1;durP2;ratioP2;P2;SDS_P1;SDS_P2;PMS_P1;PMS_P2;Temp;Humidity;BMP_temperature;BMP_pressure;BME280_temperature;BME280_humidity;BME280_pressure;Samples;Min_cycle;Max_cycle;Signal;HPM_P1;HPM_P2
2021/01/31 00:00:29;;;;;;;9.10;6.95;;;;;;;;;;4974852;28;20535;-72
2021/01/31 00:02:59;;;;;;;9.30;7.07;;;;;;;;;;4975184;28;20108;-72
2021/01/31 00:05:25;;;;;;;9.27;7.30;;;;;;;;;;4974233;28;20517;-72
2021/01/31 00:07:52;;;;;;;11.10;7.63;;;;;;;;;;4990764;28;20108;-71
2021/01/31 00:10:25;;;;;;;10.73;7.72;;;;;;;;;;4974783;28;20054;-72
2021/01/31 00:12:52;;;;;;;9.55;7.68;;;;;;;;;;4989847;28;20054;-71
2021/01/31 00:15:20;;;;;;;9.50;7.25;;;;;;;;;;4993202;28;20051;-71
2021/01/31 00:17:46;;;;;;;9.55;7.60;;;;;;;;;;4992137;28;20502;-72
2021/01/31 00:20:14;;;;;;;12.27;8.25;;;;;;;;;;4992202;28;20051;-73
2021/01/31 00:22:41;;;;;;;9.88;7.93;;;;;;;;;;4992326;28;20057;-73
2021/01/31 00:25:08;;;;;;;9.80;7.78;;;;;;;;;;4993106;28;20058;-73
2021/01/31 00:27:35;;;;;;;11.98;8.65;;;;;;;;;;4992166;28;20051;-73
2021/01/31 00:30:11;;;;;;;10.65;8.35;;;;;;;;;;4976049;28;20062;-73
2021/01/31 00:32:37;;;;;;;11.10;8.90;;;;;;;;;;4993521;28;20050;-73
2021/01/31 00:35:04;;;;;;;12.57;9.23;;;;;;;;;;4993303;28;20563;-72
2021/01/31 00:37:30;;;;;;;12.48;9.02;;;;;;;;;;4991711;28;20046;-72
2021/01/31 00:39:56;;;;;;;11.27;8.77;;;;;;;;;;4993228;28;20078;-72
2021/01/31 00:42:22;;;;;;;11.40;8.60;;;;;;;;;;4993025;28;20513;-72
2021/01/31 00:44:51;;;;;;;10.68;8.25;;;;;;;;;;4993045;28;20497;-72
2021/01/31 00:47:18;;;;;;;12.15;9.55;;;;;;;;;;4991340;28;20429;-72
2021/01/31 00:49:47;;;;;;;10.85;8.65;;;;;;;;;;4993111;28;20149;-72
2021/01/31 00:52:13;;;;;;;10.70;9.13;;;;;;;;;;4991717;28;20081;-72
2021/01/31 00:54:39;;;;;;;14.45;9.65;;;;;;;;;;4992868;28;20564;-73
2021/01/31 00:57:05;;;;;;;11.57;7.82;;;;;;;;;;4991078;28;20061;-72
2021/01/31 00:59:32;;;;;;;11.55;8.88;;;;;;;;;;4990899;28;20049;-73
2021/01/31 01:01:59;;;;;;;13.32;8.88;;;;;;;;;;4991595;28;20104;-72
2021/01/31 01:04:25;;;;;;;13.75;9.52;;;;;;;;;;4991605;28;20051;-72
2021/01/31 01:06:51;;;;;;;13.95;9.77;;;;;;;;;;4992088;28;20050;-72
2021/01/31 01:09:17;;;;;;;13.40;9.73;;;;;;;;;;4992810;28;20077;-72
2021/01/31 01:11:43;;;;;;;14.75;9.50;;;;;;;;;;4992523;28;20050;-72
2021/01/31 01:14:09;;;;;;;12.73;9.43;;;;;;;;;;4992568;28;20105;-72
2021/01/31 01:16:35;;;;;;;13.52;10.10;;;;;;;;;;4990817;28;20085;-72
2021/01/31 01:19:04;;;;;;;12.90;8.27;;;;;;;;;;4992326;28;20452;-72
2021/01/31 01:21:31;;;;;;;11.23;8.20;;;;;;;;;;4991309;28;20050;-71
2021/01/31 01:23:58;;;;;;;13.23;9.93;;;;;;;;;;4991259;28;20050;-71
2021/01/31 01:26:28;;;;;;;13.60;9.88;;;;;;;;;;4976865;28;20465;-72
2021/01/31 01:28:54;;;;;;;13.85;8.80;;;;;;;;;;4975334;28;20493;-72
2021/01/31 01:31:21;;;;;;;13.60;9.55;;;;;;;;;;4991482;28;20105;-70
2021/01/31 01:33:47;;;;;;;10.90;7.93;;;;;;;;;;4990958;28;20524;-71
2021/01/31 01:36:14;;;;;;;9.82;7.70;;;;;;;;;;4990454;28;20471;-72
2021/01/31 01:38:40;;;;;;;15.65;9.82;;;;;;;;;;4991461;28;20101;-71
2021/01/31 01:41:06;;;;;;;12.90;9.27;;;;;;;;;;4991722;28;20065;-71
2021/01/31 01:43:32;;;;;;;11.45;8.75;;;;;;;;;;4992249;28;20108;-71
2021/01/31 01:46:19;;;;;;;12.10;9.25;;;;;;;;;;4990512;28;20113;-70
2021/01/31 01:48:46;;;;;;;14.40;9.15;;;;;;;;;;4990920;28;20456;-70
2021/01/31 01:51:12;;;;;;;11.85;8.80;;;;;;;;;;4990943;28;20470;-71
2021/01/31 01:53:38;;;;;;;14.80;9.48;;;;;;;;;;4958852;28;20050;-71
2021/01/31 01:56:16;;;;;;;15.68;9.60;;;;;;;;;;4990269;28;20046;-71
2021/01/31 01:58:42;;;;;;;12.27;9.27;;;;;;;;;;4974425;28;20047;-71
2021/01/31 02:01:08;;;;;;;13.93;9.65;;;;;;;;;;4990573;28;20058;-71
2021/01/31 02:03:36;;;;;;;14.70;10.02;;;;;;;;;;4990836;28;20050;-71
2021/01/31 02:06:29;;;;;;;14.35;10.43;;;;;;;;;;4974083;28;20513;-72
2021/01/31 02:08:58;;;;;;;14.88;10.65;;;;;;;;;;4989136;28;20226;-70
2021/01/31 02:11:27;;;;;;;12.25;9.07;;;;;;;;;;4978111;28;20050;-70
2021/01/31 02:13:58;;;;;;;12.63;9.68;;;;;;;;;;4978388;28;20054;-70
2021/01/31 02:17:06;;;;;;;14.32;9.40;;;;;;;;;;4977335;28;20057;-71
2021/01/31 02:19:44;;;;;;;12.18;9.63;;;;;;;;;;4974010;28;20075;-71
2021/01/31 02:22:35;;;;;;;12.95;9.25;;;;;;;;;;4973813;28;20145;-71
2021/01/31 02:25:12;;;;;;;14.05;9.27;;;;;;;;;;4989663;28;20125;-71
2021/01/31 02:27:56;;;;;;;12.88;8.82;;;;;;;;;;4993520;28;20053;-72
2021/01/31 02:30:34;;;;;;;13.57;9.45;;;;;;;;;;4975059;28;20058;-72
2021/01/31 02:36:50;;;;;;;15.02;9.95;;;;;;;;;;4975352;28;20055;-71
2021/01/31 02:39:30;;;;;;;13.55;9.18;;;;;;;;;;4975962;28;20050;-71
2021/01/31 02:42:04;;;;;;;15.68;10.68;;;;;;;;;;4960361;28;20109;-71
2021/01/31 02:44:30;;;;;;;14.23;10.20;;;;;;;;;;4974873;28;20054;-71
2021/01/31 02:47:01;;;;;;;13.82;9.40;;;;;;;;;;4957755;28;20054;-71
2021/01/31 02:49:42;;;;;;;12.35;9.20;;;;;;;;;;4975930;28;20051;-71
2021/01/31 02:52:25;;;;;;;12.73;9.35;;;;;;;;;;4960612;28;20518;-71
2021/01/31 02:55:13;;;;;;;11.70;9.20;;;;;;;;;;4993694;28;20109;-72
2021/01/31 02:58:07;;;;;;;13.40;9.77;;;;;;;;;;4993857;28;20444;-72
2021/01/31 03:00:45;;;;;;;13.95;10.07;;;;;;;;;;4994066;28;20054;-71
2021/01/31 03:03:14;;;;;;;13.23;9.88;;;;;;;;;;4978977;28;20046;-71
2021/01/31 03:05:42;;;;;;;14.73;10.90;;;;;;;;;;4977232;28;20562;-72
2021/01/31 03:08:15;;;;;;;16.17;11.45;;;;;;;;;;4993372;28;20054;-72
2021/01/31 03:10:57;;;;;;;16.35;11.27;;;;;;;;;;4978218;28;20524;-72
2021/01/31 03:13:27;;;;;;;15.23;10.40;;;;;;;;;;4978891;28;20102;-72
2021/01/31 03:16:19;;;;;;;14.77;10.00;;;;;;;;;;4977172;28;20046;-72
2021/01/31 03:18:50;;;;;;;15.68;10.90;;;;;;;;;;4988776;28;20042;-71
2021/01/31 03:21:21;;;;;;;14.80;10.95;;;;;;;;;;5030281;22;20049;-73
2021/01/31 03:24:06;;;;;;;16.63;11.10;;;;;;;;;;4995053;28;20089;-73
2021/01/31 03:26:37;;;;;;;16.50;10.93;;;;;;;;;;5012496;28;20053;-73
2021/01/31 03:29:03;;;;;;;13.10;9.65;;;;;;;;;;5011509;28;20080;-72
2021/01/31 03:31:30;;;;;;;15.38;10.65;;;;;;;;;;4996514;28;20085;-73
2021/01/31 03:34:02;;;;;;;15.73;10.55;;;;;;;;;;4996419;28;20119;-72
2021/01/31 03:36:29;;;;;;;15.38;11.35;;;;;;;;;;4995966;28;20038;-73
2021/01/31 03:38:55;;;;;;;18.02;11.85;;;;;;;;;;4996276;28;20101;-73
2021/01/31 03:41:23;;;;;;;18.25;11.98;;;;;;;;;;4996479;28;20200;-73
2021/01/31 03:43:49;;;;;;;17.52;11.63;;;;;;;;;;4996525;28;20050;-73
2021/01/31 03:46:23;;;;;;;16.45;10.95;;;;;;;;;;5012826;28;20103;-73
2021/01/31 03:48:57;;;;;;;18.02;11.70;;;;;;;;;;5032141;28;20069;-72
2021/01/31 03:51:23;;;;;;;16.15;11.60;;;;;;;;;;5032248;28;20204;-72
2021/01/31 03:53:49;;;;;;;16.52;11.30;;;;;;;;;;5015687;28;20049;-71
2021/01/31 03:56:17;;;;;;;16.90;11.02;;;;;;;;;;5014982;28;20053;-72
2021/01/31 03:58:44;;;;;;;16.33;10.82;;;;;;;;;;5015841;28;20405;-72
2021/01/31 04:01:10;;;;;;;16.67;11.20;;;;;;;;;;5015460;28;20091;-72
2021/01/31 04:03:46;;;;;;;17.55;11.50;;;;;;;;;;5015414;28;20492;-72
2021/01/31 04:06:17;;;;;;;18.45;12.15;;;;;;;;;;4986353;28;20439;-72
2021/01/31 04:08:44;;;;;;;18.60;11.52;;;;;;;;;;4996525;28;20112;-72
2021/01/31 04:11:10;;;;;;;19.65;12.40;;;;;;;;;;4979540;28;20500;-72
2021/01/31 04:13:36;;;;;;;17.35;11.07;;;;;;;;;;5015882;28;20500;-72
2021/01/31 04:16:04;;;;;;;17.73;11.35;;;;;;;;;;5014574;28;20053;-72
2021/01/31 04:18:30;;;;;;;14.75;10.57;;;;;;;;;;5015647;28;20050;-72
2021/01/31 04:20:57;;;;;;;16.48;10.82;;;;;;;;;;5031415;28;20053;-72
2021/01/31 04:23:23;;;;;;;19.40;10.20;;;;;;;;;;5000290;28;20054;-71
2021/01/31 04:25:49;;;;;;;15.77;11.20;;;;;;;;;;5032018;28;20496;-72
2021/01/31 04:28:23;;;;;;;14.55;10.10;;;;;;;;;;5015340;28;20084;-71
2021/01/31 04:30:56;;;;;;;15.30;11.02;;;;;;;;;;5015386;28;20053;-71
2021/01/31 04:33:24;;;;;;;16.92;11.35;;;;;;;;;;5003884;28;20064;-72
2021/01/31 04:35:51;;;;;;;16.08;11.13;;;;;;;;;;5010922;28;20053;-72
2021/01/31 04:38:18;;;;;;;16.10;11.30;;;;;;;;;;4995535;28;20054;-72
2021/01/31 04:40:44;;;;;;;16.52;10.85;;;;;;;;;;4995455;28;20053;-72
2021/01/31 04:43:15;;;;;;;16.73;10.88;;;;;;;;;;5011596;28;20468;-73
2021/01/31 04:45:42;;;;;;;13.43;10.30;;;;;;;;;;4994988;28;20072;-72
2021/01/31 04:48:22;;;;;;;15.95;10.32;;;;;;;;;;5011411;28;20382;-72
2021/01/31 04:51:26;;;;;;;16.98;11.43;;;;;;;;;;5011501;28;20448;-72
2021/01/31 04:54:10;;;;;;;17.10;11.20;;;;;;;;;;5012450;28;20516;-72
2021/01/31 04:56:52;;;;;;;16.00;11.07;;;;;;;;;;5013423;28;20153;-73
2021/01/31 04:59:22;;;;;;;15.20;11.52;;;;;;;;;;5011315;28;20188;-71
2021/01/31 05:01:51;;;;;;;15.98;11.82;;;;;;;;;;5011099;28;20076;-73
2021/01/31 05:04:18;;;;;;;15.93;10.90;;;;;;;;;;4995232;28;20073;-73
2021/01/31 05:06:49;;;;;;;18.77;12.05;;;;;;;;;;5010686;28;20120;-72
2021/01/31 05:09:21;;;;;;;17.70;11.50;;;;;;;;;;5011243;28;20163;-73
2021/01/31 05:11:56;;;;;;;16.60;10.18;;;;;;;;;;4995664;28;20100;-72
2021/01/31 05:14:46;;;;;;;18.55;11.32;;;;;;;;;;5011056;28;20050;-72
2021/01/31 05:17:15;;;;;;;20.00;12.75;;;;;;;;;;5010406;28;20161;-73
2021/01/31 05:19:41;;;;;;;21.63;13.25;;;;;;;;;;4994371;28;20045;-73
2021/01/31 05:22:12;;;;;;;16.58;11.43;;;;;;;;;;5010421;28;20475;-74
2021/01/31 05:24:38;;;;;;;19.05;12.07;;;;;;;;;;4979079;28;20062;-74
2021/01/31 05:27:04;;;;;;;19.23;11.60;;;;;;;;;;4993928;28;20053;-72
2021/01/31 05:29:34;;;;;;;19.63;11.85;;;;;;;;;;5010821;28;20046;-73
2021/01/31 05:32:07;;;;;;;17.00;11.68;;;;;;;;;;4995088;28;20076;-73
2021/01/31 05:34:39;;;;;;;19.00;12.48;;;;;;;;;;5011313;28;20066;-73
2021/01/31 05:37:10;;;;;;;17.70;12.05;;;;;;;;;;4994616;28;20053;-72
2021/01/31 05:39:47;;;;;;;17.73;11.25;;;;;;;;;;4995205;28;20046;-73
2021/01/31 05:42:18;;;;;;;16.85;11.15;;;;;;;;;;5010684;28;20076;-73
2021/01/31 05:44:58;;;;;;;18.48;11.95;;;;;;;;;;4981127;28;20511;-72
2021/01/31 05:47:25;;;;;;;17.58;11.60;;;;;;;;;;5016787;28;20085;-72
2021/01/31 05:49:53;;;;;;;20.00;12.68;;;;;;;;;;5000957;28;20107;-73
2021/01/31 05:52:22;;;;;;;16.15;10.85;;;;;;;;;;5001214;28;20128;-73
2021/01/31 05:54:50;;;;;;;19.55;11.25;;;;;;;;;;5018461;28;20467;-73
2021/01/31 05:57:36;;;;;;;16.35;11.23;;;;;;;;;;4984418;28;20060;-73
2021/01/31 06:00:17;;;;;;;17.35;11.60;;;;;;;;;;5007455;28;20084;-72
2021/01/31 06:02:57;;;;;;;15.10;11.10;;;;;;;;;;5038069;28;20059;-72
2021/01/31 06:05:23;;;;;;;16.80;10.77;;;;;;;;;;5019715;28;20413;-72
2021/01/31 06:08:10;;;;;;;16.20;11.27;;;;;;;;;;5036848;28;20053;-72
2021/01/31 06:10:40;;;;;;;17.65;11.95;;;;;;;;;;5036749;28;20115;-72
2021/01/31 06:13:20;;;;;;;16.70;10.98;;;;;;;;;;5019618;28;20107;-73
2021/01/31 06:15:56;;;;;;;17.25;10.95;;;;;;;;;;5017281;28;20046;-72
2021/01/31 06:18:25;;;;;;;19.17;12.40;;;;;;;;;;5036593;28;20049;-73
2021/01/31 06:20:51;;;;;;;17.35;11.52;;;;;;;;;;5002326;28;20464;-72
2021/01/31 06:23:21;;;;;;;17.23;11.80;;;;;;;;;;5017012;28;20088;-72
2021/01/31 06:25:47;;;;;;;17.20;11.13;;;;;;;;;;5016299;28;20049;-73
2021/01/31 06:28:20;;;;;;;15.63;11.07;;;;;;;;;;5016937;28;20497;-73
2021/01/31 06:31:21;;;;;;;17.80;11.63;;;;;;;;;;5017614;28;20057;-73
2021/01/31 06:33:48;;;;;;;15.25;11.18;;;;;;;;;;5005385;28;20054;-74
2021/01/31 06:36:38;;;;;;;14.85;10.48;;;;;;;;;;5000751;28;20092;-72
2021/01/31 06:39:13;;;;;;;16.65;10.65;;;;;;;;;;5017168;28;20049;-76
2021/01/31 06:41:46;;;;;;;16.92;10.65;;;;;;;;;;5000767;28;20069;-73
2021/01/31 06:44:46;;;;;;;16.77;10.52;;;;;;;;;;5017014;28;20053;-70
2021/01/31 06:47:34;;;;;;;14.30;9.95;;;;;;;;;;4985647;28;20084;-72
2021/01/31 06:50:18;;;;;;;14.60;10.50;;;;;;;;;;5037282;28;20658;-73
2021/01/31 06:52:49;;;;;;;15.95;10.95;;;;;;;;;;5036461;28;20103;-73
2021/01/31 06:55:36;;;;;;;14.82;9.73;;;;;;;;;;5036096;28;20053;-72
2021/01/31 06:58:02;;;;;;;19.65;11.68;;;;;;;;;;5033265;28;20053;-73
2021/01/31 07:00:43;;;;;;;16.48;10.35;;;;;;;;;;5034393;28;20045;-72
2021/01/31 07:03:24;;;;;;;15.18;10.60;;;;;;;;;;5016991;28;20132;-72
2021/01/31 07:06:02;;;;;;;16.80;10.90;;;;;;;;;;5014061;28;20187;-71
2021/01/31 07:08:55;;;;;;;15.55;9.48;;;;;;;;;;4997773;28;20056;-72
2021/01/31 07:11:46;;;;;;;17.15;10.60;;;;;;;;;;5014558;28;20050;-72
2021/01/31 07:14:37;;;;;;;15.25;10.40;;;;;;;;;;5014462;28;20465;-71
2021/01/31 07:17:23;;;;;;;14.73;9.95;;;;;;;;;;5026199;28;20053;-72
2021/01/31 07:20:06;;;;;;;16.90;10.90;;;;;;;;;;5013706;28;20559;-72
2021/01/31 07:23:11;;;;;;;18.42;11.68;;;;;;;;;;5013185;28;20045;-73
2021/01/31 07:25:57;;;;;;;16.13;10.02;;;;;;;;;;5012567;28;20050;-72
2021/01/31 07:28:31;;;;;;;17.95;11.63;;;;;;;;;;4999441;28;20103;-72
2021/01/31 07:31:17;;;;;;;19.88;11.65;;;;;;;;;;4996753;28;20104;-73
2021/01/31 07:33:59;;;;;;;16.77;11.25;;;;;;;;;;4998731;28;20053;-72
2021/01/31 07:36:37;;;;;;;15.85;10.35;;;;;;;;;;4997770;28;20050;-71
2021/01/31 07:39:07;;;;;;;15.55;10.40;;;;;;;;;;5012719;28;20123;-72
2021/01/31 07:41:33;;;;;;;14.95;10.63;;;;;;;;;;4997728;28;20108;-72
2021/01/31 07:44:06;;;;;;;15.65;9.40;;;;;;;;;;4996636;28;20065;-71
2021/01/31 07:46:32;;;;;;;13.75;9.75;;;;;;;;;;5012709;28;20058;-73
2021/01/31 07:49:01;;;;;;;12.57;9.43;;;;;;;;;;5012813;28;20559;-72
2021/01/31 07:51:27;;;;;;;14.88;9.77;;;;;;;;;;5003753;28;20043;-73
2021/01/31 07:53:54;;;;;;;15.07;10.75;;;;;;;;;;5033560;28;20128;-72
2021/01/31 07:56:26;;;;;;;12.30;9.02;;;;;;;;;;5015393;28;20053;-72
2021/01/31 07:58:54;;;;;;;17.67;10.23;;;;;;;;;;5031685;28;20397;-73
2021/01/31 08:01:39;;;;;;;15.15;10.20;;;;;;;;;;4996202;28;20531;-71
2021/01/31 08:04:17;;;;;;;16.15;10.75;;;;;;;;;;5014212;28;20093;-73
2021/01/31 08:06:54;;;;;;;15.57;9.77;;;;;;;;;;5010253;28;20054;-71
2021/01/31 08:09:26;;;;;;;14.05;10.05;;;;;;;;;;4994249;28;20096;-71
2021/01/31 08:12:07;;;;;;;15.07;9.83;;;;;;;;;;5012510;28;20116;-71
2021/01/31 08:15:03;;;;;;;16.50;10.52;;;;;;;;;;4982247;28;20123;-71
2021/01/31 08:18:11;;;;;;;16.08;10.63;;;;;;;;;;5012129;28;20050;-71
2021/01/31 08:20:43;;;;;;;15.77;10.07;;;;;;;;;;4993743;28;20128;-71
2021/01/31 08:23:10;;;;;;;13.45;8.88;;;;;;;;;;5011803;28;20136;-72
2021/01/31 08:25:56;;;;;;;15.73;10.77;;;;;;;;;;5022875;28;20071;-71
2021/01/31 08:28:30;;;;;;;14.18;10.20;;;;;;;;;;5032764;28;20554;-71
2021/01/31 08:31:05;;;;;;;14.20;10.48;;;;;;;;;;5016241;28;20053;-71
2021/01/31 08:33:38;;;;;;;15.13;10.00;;;;;;;;;;5023295;28;20501;-70
2021/01/31 08:36:12;;;;;;;10.52;8.63;;;;;;;;;;4994076;28;20107;-71
2021/01/31 08:38:45;;;;;;;11.07;8.30;;;;;;;;;;4994533;28;20069;-71
2021/01/31 08:41:35;;;;;;;11.93;9.73;;;;;;;;;;4995004;28;20555;-70
2021/01/31 08:44:10;;;;;;;12.38;9.38;;;;;;;;;;5029673;28;20049;-71
2021/01/31 08:46:56;;;;;;;11.02;8.75;;;;;;;;;;5029176;28;20057;-71
2021/01/31 08:49:22;;;;;;;11.13;9.10;;;;;;;;;;5030446;28;20485;-71
2021/01/31 08:51:56;;;;;;;13.43;9.65;;;;;;;;;;5013889;28;20107;-70
2021/01/31 08:54:24;;;;;;;14.02;9.20;;;;;;;;;;5030286;28;20057;-71
2021/01/31 08:56:58;;;;;;;11.27;8.55;;;;;;;;;;4988766;28;20570;-70
2021/01/31 08:59:37;;;;;;;12.85;9.07;;;;;;;;;;4993706;28;20049;-71
2021/01/31 09:02:09;;;;;;;12.35;9.48;;;;;;;;;;5010830;28;20570;-70
2021/01/31 09:04:36;;;;;;;13.15;9.43;;;;;;;;;;5011152;28;20112;-70
2021/01/31 09:07:03;;;;;;;11.60;8.13;;;;;;;;;;4977453;28;20104;-70
2021/01/31 09:09:29;;;;;;;11.15;8.85;;;;;;;;;;4977088;28;20050;-72
2021/01/31 09:12:07;;;;;;;12.10;9.07;;;;;;;;;;5026965;28;20497;-70
2021/01/31 09:14:36;;;;;;;12.57;8.95;;;;;;;;;;5012929;28;20107;-69
2021/01/31 09:17:03;;;;;;;12.27;9.38;;;;;;;;;;5011032;28;20658;-70
2021/01/31 09:19:29;;;;;;;12.27;9.07;;;;;;;;;;5029797;28;20098;-71
2021/01/31 09:22:05;;;;;;;14.65;10.10;;;;;;;;;;5029351;28;20053;-73
2021/01/31 09:24:36;;;;;;;11.63;9.15;;;;;;;;;;5016597;28;20107;-74
2021/01/31 09:27:03;;;;;;;11.75;8.98;;;;;;;;;;4989496;28;20049;-74
2021/01/31 09:29:30;;;;;;;14.35;10.73;;;;;;;;;;5025860;28;20041;-73
2021/01/31 09:32:08;;;;;;;12.77;10.07;;;;;;;;;;5011163;28;20056;-73
2021/01/31 09:34:34;;;;;;;15.32;10.73;;;;;;;;;;5009111;28;20662;-74
2021/01/31 09:37:09;;;;;;;13.68;9.80;;;;;;;;;;5007839;28;20104;-77
2021/01/31 09:39:36;;;;;;;14.70;10.77;;;;;;;;;;5025237;28;20046;-71
2021/01/31 09:42:03;;;;;;;16.13;10.50;;;;;;;;;;5008230;28;20748;-72
2021/01/31 09:44:31;;;;;;;14.95;10.57;;;;;;;;;;4992854;28;20073;-72
2021/01/31 09:46:58;;;;;;;13.82;9.98;;;;;;;;;;5016295;28;20080;-73
2021/01/31 09:49:25;;;;;;;16.17;10.88;;;;;;;;;;5010057;28;20049;-73
2021/01/31 09:51:52;;;;;;;14.27;10.43;;;;;;;;;;5007784;28;20535;-73
2021/01/31 09:54:20;;;;;;;14.80;10.20;;;;;;;;;;5009880;28;20049;-75
2021/01/31 09:56:57;;;;;;;14.38;10.70;;;;;;;;;;5008804;28;20195;-74
2021/01/31 09:59:30;;;;;;;15.05;10.00;;;;;;;;;;5009202;28;20424;-72
2021/01/31 10:02:07;;;;;;;;;;;;;;;;;;5025313;28;20415;-71
2021/01/31 10:04:34;;;;;;;14.55;9.90;;;;;;;;;;5024512;28;19925;-73
2021/01/31 10:07:20;;;;;;;12.52;9.85;;;;;;;;;;5025214;28;20515;-73
2021/01/31 10:09:50;;;;;;;14.40;10.30;;;;;;;;;;5026152;28;20075;-74
2021/01/31 10:12:25;;;;;;;13.55;10.48;;;;;;;;;;5009740;28;20053;-72
2021/01/31 10:14:55;;;;;;;14.18;10.55;;;;;;;;;;5026177;28;20115;-71
2021/01/31 10:17:28;;;;;;;12.30;9.63;;;;;;;;;;5015493;28;20594;-75
2021/01/31 10:20:48;;;;;;;12.43;9.63;;;;;;;;;;5025346;28;20049;-74
2021/01/31 10:23:16;;;;;;;11.95;8.70;;;;;;;;;;5002939;28;20142;-72
2021/01/31 10:25:55;;;;;;;13.82;9.90;;;;;;;;;;5017590;28;20088;-72
2021/01/31 10:28:30;;;;;;;11.20;8.63;;;;;;;;;;5011247;28;20103;-72
2021/01/31 10:30:58;;;;;;;13.30;9.57;;;;;;;;;;4993021;28;20053;-72
2021/01/31 10:33:43;;;;;;;13.80;9.82;;;;;;;;;;5028174;28;20407;-72
2021/01/31 10:36:21;;;;;;;12.10;9.40;;;;;;;;;;5029843;28;20103;-72
2021/01/31 10:38:47;;;;;;;12.43;9.43;;;;;;;;;;5029137;28;20393;-72
2021/01/31 10:41:13;;;;;;;14.43;9.93;;;;;;;;;;5029294;28;20526;-72
2021/01/31 10:43:39;;;;;;;12.77;9.40;;;;;;;;;;5017806;28;20112;-72
2021/01/31 10:46:05;;;;;;;11.52;9.23;;;;;;;;;;5009807;28;20135;-72
2021/01/31 10:48:31;;;;;;;13.23;9.90;;;;;;;;;;5023009;28;20084;-72
2021/01/31 10:50:58;;;;;;;12.75;10.00;;;;;;;;;;5013032;28;20057;-72
2021/01/31 10:53:24;;;;;;;11.23;9.05;;;;;;;;;;5010714;28;20053;-72
2021/01/31 10:55:51;;;;;;;12.43;9.35;;;;;;;;;;5029376;28;20057;-72
2021/01/31 10:58:17;;;;;;;16.63;10.23;;;;;;;;;;5019572;28;20594;-72
2021/01/31 11:00:43;;;;;;;12.25;9.25;;;;;;;;;;5017946;28;20406;-72
2021/01/31 11:03:09;;;;;;;14.98;9.85;;;;;;;;;;5014107;28;20192;-72
2021/01/31 11:05:35;;;;;;;12.32;9.75;;;;;;;;;;4994420;28;20488;-72
2021/01/31 11:08:02;;;;;;;12.50;9.25;;;;;;;;;;5012291;28;20196;-72
2021/01/31 11:10:28;;;;;;;12.77;9.63;;;;;;;;;;5010717;28;20089;-72
2021/01/31 11:12:54;;;;;;;12.63;9.90;;;;;;;;;;5010857;28;20065;-72
2021/01/31 11:15:20;;;;;;;13.75;9.98;;;;;;;;;;4994364;28;20563;-72
2021/01/31 11:17:46;;;;;;;15.05;9.88;;;;;;;;;;5012297;28;20501;-72
2021/01/31 11:20:12;;;;;;;13.15;9.73;;;;;;;;;;5010975;28;20113;-72
2021/01/31 11:22:39;;;;;;;10.18;8.50;;;;;;;;;;5025521;28;20583;-72
2021/01/31 11:25:06;;;;;;;12.35;9.25;;;;;;;;;;5032321;28;20467;-72
2021/01/31 11:27:33;;;;;;;12.43;9.43;;;;;;;;;;5016421;28;20046;-72
2021/01/31 11:29:59;;;;;;;13.85;9.50;;;;;;;;;;5019499;28;20046;-72
2021/01/31 11:32:26;;;;;;;11.88;9.25;;;;;;;;;;5012791;28;20093;-74
2021/01/31 11:34:52;;;;;;;11.30;8.73;;;;;;;;;;5016546;28;20459;-72
2021/01/31 11:37:18;;;;;;;12.98;9.07;;;;;;;;;;5029946;28;20072;-72
2021/01/31 11:39:44;;;;;;;13.07;9.48;;;;;;;;;;5032343;28;20061;-72
2021/01/31 11:42:10;;;;;;;14.05;9.95;;;;;;;;;;5026879;28;20053;-72
2021/01/31 11:44:37;;;;;;;11.60;8.70;;;;;;;;;;5003468;28;20443;-71
2021/01/31 11:47:03;;;;;;;11.98;9.25;;;;;;;;;;5028255;28;20107;-72
2021/01/31 11:49:29;;;;;;;10.73;8.50;;;;;;;;;;5030263;28;20056;-72
2021/01/31 11:51:56;;;;;;;12.50;9.00;;;;;;;;;;5029290;28;20075;-72
2021/01/31 11:54:22;;;;;;;12.10;8.85;;;;;;;;;;5028760;28;20055;-72
2021/01/31 11:56:48;;;;;;;10.45;8.35;;;;;;;;;;5028769;28;20049;-73
2021/01/31 11:59:14;;;;;;;10.75;7.68;;;;;;;;;;5029912;28;20496;-72
2021/01/31 12:01:40;;;;;;;11.00;7.60;;;;;;;;;;5031057;28;20471;-73
2021/01/31 12:04:07;;;;;;;11.43;8.43;;;;;;;;;;5028282;28;20053;-72
2021/01/31 12:06:33;;;;;;;11.40;8.50;;;;;;;;;;5011948;28;20126;-73
2021/01/31 12:09:00;;;;;;;12.60;8.77;;;;;;;;;;5030337;28;20412;-72
2021/01/31 12:11:27;;;;;;;11.73;8.07;;;;;;;;;;5029169;28;20095;-73
2021/01/31 12:13:55;;;;;;;12.77;8.63;;;;;;;;;;5028202;28;20088;-72
2021/01/31 12:16:22;;;;;;;12.43;8.75;;;;;;;;;;5028677;28;20163;-71
2021/01/31 12:18:48;;;;;;;11.85;8.05;;;;;;;;;;5028874;28;20054;-71
2021/01/31 12:21:14;;;;;;;11.63;8.95;;;;;;;;;;5012459;28;20069;-72
2021/01/31 12:23:40;;;;;;;11.63;8.77;;;;;;;;;;5029477;28;20056;-72
2021/01/31 12:26:06;;;;;;;12.27;8.52;;;;;;;;;;5030739;28;20053;-72
2021/01/31 12:28:32;;;;;;;11.00;7.55;;;;;;;;;;5031278;28;20054;-71
2021/01/31 12:30:59;;;;;;;11.52;7.90;;;;;;;;;;4998110;28;20107;-71
2021/01/31 12:33:25;;;;;;;9.68;7.35;;;;;;;;;;5028649;28;20053;-71
2021/01/31 12:35:51;;;;;;;13.00;8.50;;;;;;;;;;5028607;28;20405;-71
2021/01/31 12:38:17;;;;;;;9.85;7.30;;;;;;;;;;5029598;28;20050;-71
2021/01/31 12:40:43;;;;;;;10.32;7.72;;;;;;;;;;5029368;28;20045;-71
2021/01/31 12:43:09;;;;;;;11.15;8.10;;;;;;;;;;5030418;28;20856;-72
2021/01/31 12:45:36;;;;;;;9.23;7.20;;;;;;;;;;5028359;28;20054;-71
2021/01/31 12:48:02;;;;;;;11.45;7.63;;;;;;;;;;5029268;28;20095;-72
2021/01/31 12:50:30;;;;;;;11.52;8.40;;;;;;;;;;5002246;28;20042;-72
2021/01/31 12:52:57;;;;;;;13.07;9.00;;;;;;;;;;4977178;28;20058;-72
2021/01/31 12:55:23;;;;;;;10.90;7.40;;;;;;;;;;5008525;28;20065;-72
2021/01/31 12:57:49;;;;;;;10.55;7.53;;;;;;;;;;4993160;28;20058;-72
2021/01/31 13:00:18;;;;;;;9.98;7.68;;;;;;;;;;4993051;28;20069;-72
2021/01/31 13:02:45;;;;;;;10.55;8.25;;;;;;;;;;5009339;28;20057;-72
2021/01/31 13:05:12;;;;;;;10.65;7.72;;;;;;;;;;5005148;28;20085;-72
2021/01/31 13:07:38;;;;;;;10.63;8.07;;;;;;;;;;5012184;28;20104;-72
2021/01/31 13:10:05;;;;;;;10.93;8.25;;;;;;;;;;5012332;28;20103;-72
2021/01/31 13:12:31;;;;;;;12.13;8.13;;;;;;;;;;5012458;28;20103;-71
2021/01/31 13:14:57;;;;;;;13.65;9.18;;;;;;;;;;5029953;28;20093;-70
2021/01/31 13:17:23;;;;;;;12.23;8.63;;;;;;;;;;5011921;28;20080;-70
2021/01/31 13:19:50;;;;;;;14.60;9.90;;;;;;;;;;5017935;28;20517;-70
2021/01/31 13:22:16;;;;;;;10.77;8.15;;;;;;;;;;5008689;28;20123;-70
2021/01/31 13:24:42;;;;;;;12.07;9.02;;;;;;;;;;5010198;28;20124;-70
2021/01/31 13:27:09;;;;;;;12.25;9.00;;;;;;;;;;5008424;28;20053;-71
2021/01/31 13:29:36;;;;;;;12.48;8.18;;;;;;;;;;5009161;28;20112;-71
2021/01/31 13:32:06;;;;;;;12.68;8.32;;;;;;;;;;5008752;28;20116;-70
2021/01/31 13:34:32;;;;;;;11.15;8.25;;;;;;;;;;5022330;28;20072;-70
2021/01/31 13:36:59;;;;;;;11.23;7.97;;;;;;;;;;4995769;28;20045;-70
2021/01/31 13:39:28;;;;;;;12.40;9.75;;;;;;;;;;5029805;28;20220;-70
2021/01/31 13:41:55;;;;;;;11.88;8.23;;;;;;;;;;5029752;28;20050;-70
2021/01/31 13:44:21;;;;;;;12.80;9.05;;;;;;;;;;5028745;28;20045;-70
2021/01/31 13:46:47;;;;;;;13.80;9.43;;;;;;;;;;5006867;28;20061;-70
2021/01/31 13:49:13;;;;;;;12.50;8.98;;;;;;;;;;4976355;28;20105;-70
2021/01/31 13:51:39;;;;;;;12.88;9.00;;;;;;;;;;4992414;28;20080;-70
2021/01/31 13:54:06;;;;;;;13.15;9.50;;;;;;;;;;5008518;28;20046;-70
2021/01/31 13:56:32;;;;;;;13.00;9.10;;;;;;;;;;5008356;28;20053;-71
2021/01/31 13:58:58;;;;;;;11.77;9.32;;;;;;;;;;5008738;28;20054;-70
2021/01/31 14:01:24;;;;;;;14.10;8.98;;;;;;;;;;5029050;28;20150;-70
2021/01/31 14:03:50;;;;;;;12.40;9.10;;;;;;;;;;5011867;28;20053;-70
2021/01/31 14:06:16;;;;;;;16.70;9.30;;;;;;;;;;5030585;28;20081;-70
2021/01/31 14:08:42;;;;;;;13.20;8.90;;;;;;;;;;5016008;28;20076;-71
2021/01/31 14:11:08;;;;;;;16.33;9.52;;;;;;;;;;5032154;28;20049;-71
2021/01/31 14:13:35;;;;;;;14.27;9.77;;;;;;;;;;5014470;28;20065;-71
2021/01/31 14:16:01;;;;;;;14.35;9.57;;;;;;;;;;5011694;28;20053;-71
2021/01/31 14:18:27;;;;;;;16.48;10.38;;;;;;;;;;5012148;28;20104;-71
2021/01/31 14:20:53;;;;;;;14.38;10.25;;;;;;;;;;5009325;28;20099;-71
2021/01/31 14:23:22;;;;;;;14.43;9.55;;;;;;;;;;5029956;28;20051;-72
2021/01/31 14:25:48;;;;;;;16.17;10.15;;;;;;;;;;5028551;28;20559;-72
2021/01/31 14:28:14;;;;;;;14.77;9.63;;;;;;;;;;5019643;28;20077;-71
2021/01/31 14:30:40;;;;;;;16.48;10.15;;;;;;;;;;5030882;28;20073;-71
2021/01/31 14:33:06;;;;;;;13.57;8.82;;;;;;;;;;5013309;28;20077;-72
2021/01/31 14:35:32;;;;;;;15.10;10.30;;;;;;;;;;5012447;28;20067;-71
2021/01/31 14:37:59;;;;;;;13.80;9.15;;;;;;;;;;5029153;28;20084;-71
2021/01/31 14:40:26;;;;;;;15.05;9.25;;;;;;;;;;5013342;28;20431;-71
2021/01/31 14:42:53;;;;;;;14.85;10.18;;;;;;;;;;5010880;28;20068;-71
2021/01/31 14:45:24;;;;;;;12.98;9.68;;;;;;;;;;4996922;28;20076;-71
2021/01/31 14:47:50;;;;;;;13.98;9.52;;;;;;;;;;5028792;28;20508;-70
2021/01/31 14:50:16;;;;;;;14.70;10.07;;;;;;;;;;5029715;28;20041;-71
2021/01/31 14:52:45;;;;;;;16.33;10.48;;;;;;;;;;5010899;28;20140;-71